sensor_id;sensor_type;location;lat;lon;timestamp;temperature;humidity
41262;DHT22;29629;52.532;13.352;2022-07-17T00:01:18;15.20;99.90
41262;DHT22;29629;52.532;13.352;2022-07-17T00:03:46;15.20;99.90
41262;DHT22;29629;52.532;13.352;2022-07-17T00:06:13;15.10;99.90
41262;DHT22;29629;52.532;13.352;2022-07-17T00:08:41;15.10;99.90
41262;DHT22;29629;52.532;13.352;2022-07-17T00:11:08;15.10;99.90
41262;DHT22;29629;52.532;13.352;2022-07-17T00:13:35;15.10;99.90
41262;DHT22;29629;52.532;13.352;2022-07-17T00:16:02;15.10;99.90
41262;DHT22;29629;52.532;13.352;2022-07-17T00:18:29;15.00;99.90
41262;DHT22;29629;52.532;13.352;2022-07-17T00:20:56;15.00;99.90
41262;DHT22;29629;52.532;13.352;2022-07-17T00:23:23;15.00;99.90
41262;DHT22;29629;52.532;13.352;2022-07-17T00:25:51;15.00;99.90
41262;DHT22;29629;52.532;13.352;2022-07-17T00:28:18;14.90;99.90
41262;DHT22;29629;52.532;13.352;2022-07-17T00:30:44;14.90;99.90
41262;DHT22;29629;52.532;13.352;2022-07-17T00:33:11;14.90;99.90
41262;DHT22;29629;52.532;13.352;2022-07-17T00:35:38;14.80;99.90
41262;DHT22;29629;52.532;13.352;2022-07-17T00:38:05;14.80;99.90
41262;DHT22;29629;52.532;13.352;2022-07-17T00:40:32;14.70;99.90
41262;DHT22;29629;52.532;13.352;2022-07-17T00:43:00;14.70;99.90
41262;DHT22;29629;52.532;13.352;2022-07-17T00:45:27;14.70;99.90
41262;DHT22;29629;52.532;13.352;2022-07-17T00:47:56;14.70;99.90
41262;DHT22;29629;52.532;13.352;2022-07-17T00:50:24;14.70;99.90
41262;DHT22;29629;52.532;13.352;2022-07-17T00:52:51;14.60;99.90
41262;DHT22;29629;52.532;13.352;2022-07-17T00:55:18;14.60;99.90
41262;DHT22;29629;52.532;13.352;2022-07-17T00:57:46;14.60;99.90
41262;DHT22;29629;52.532;13.352;2022-07-17T01:00:15;14.60;99.90
41262;DHT22;29629;52.532;13.352;2022-07-17T01:02:45;14.60;99.90
41262;DHT22;29629;52.532;13.352;2022-07-17T01:05:13;14.50;99.90
41262;DHT22;29629;52.532;13.352;2022-07-17T01:07:40;14.50;99.90
41262;DHT22;29629;52.532;13.352;2022-07-17T01:10:07;14.50;99.90
41262;DHT22;29629;52.532;13.352;2022-07-17T01:12:34;14.50;99.90
41262;DHT22;29629;52.532;13.352;2022-07-17T01:15:02;14.40;99.90
41262;DHT22;29629;52.532;13.352;2022-07-17T01:17:31;14.40;99.90
41262;DHT22;29629;52.532;13.352;2022-07-17T01:19:58;14.40;99.90
41262;DHT22;29629;52.532;13.352;2022-07-17T01:22:26;14.30;99.90
41262;DHT22;29629;52.532;13.352;2022-07-17T01:24:53;14.40;99.90
41262;DHT22;29629;52.532;13.352;2022-07-17T01:27:20;14.40;99.90
41262;DHT22;29629;52.532;13.352;2022-07-17T01:29:47;14.40;99.90
41262;DHT22;29629;52.532;13.352;2022-07-17T01:32:14;14.40;99.90
41262;DHT22;29629;52.532;13.352;2022-07-17T01:34:40;14.30;99.90
41262;DHT22;29629;52.532;13.352;2022-07-17T01:37:07;14.30;99.90
41262;DHT22;29629;52.532;13.352;2022-07-17T01:39:35;14.30;99.90
41262;DHT22;29629;52.532;13.352;2022-07-17T01:42:20;14.20;99.90
41262;DHT22;29629;52.532;13.352;2022-07-17T01:44:47;14.20;99.90
41262;DHT22;29629;52.532;13.352;2022-07-17T01:47:15;14.20;99.90
41262;DHT22;29629;52.532;13.352;2022-07-17T01:49:43;14.20;99.90
41262;DHT22;29629;52.532;13.352;2022-07-17T01:52:11;14.10;99.90
41262;DHT22;29629;52.532;13.352;2022-07-17T01:54:40;14.10;99.90
41262;DHT22;29629;52.532;13.352;2022-07-17T01:57:07;14.00;99.90
41262;DHT22;29629;52.532;13.352;2022-07-17T01:59:35;14.00;99.90
41262;DHT22;29629;52.532;13.352;2022-07-17T02:02:01;14.10;99.90
41262;DHT22;29629;52.532;13.352;2022-07-17T02:04:30;14.00;99.90
41262;DHT22;29629;52.532;13.352;2022-07-17T02:06:57;14.00;99.90
41262;DHT22;29629;52.532;13.352;2022-07-17T02:09:23;14.00;99.90
41262;DHT22;29629;52.532;13.352;2022-07-17T02:11:52;14.00;99.90
41262;DHT22;29629;52.532;13.352;2022-07-17T02:14:18;14.00;99.90
41262;DHT22;29629;52.532;13.352;2022-07-17T02:16:45;14.00;99.90
41262;DHT22;29629;52.532;13.352;2022-07-17T02:19:12;13.90;99.90
41262;DHT22;29629;52.532;13.352;2022-07-17T02:21:39;13.90;99.90
41262;DHT22;29629;52.532;13.352;2022-07-17T02:24:06;13.90;99.90
41262;DHT22;29629;52.532;13.352;2022-07-17T02:26:33;13.80;99.90
41262;DHT22;29629;52.532;13.352;2022-07-17T02:29:01;13.80;99.90
41262;DHT22;29629;52.532;13.352;2022-07-17T02:31:28;13.80;99.90
41262;DHT22;29629;52.532;13.352;2022-07-17T02:33:55;13.70;99.90
41262;DHT22;29629;52.532;13.352;2022-07-17T02:36:22;13.70;99.90
41262;DHT22;29629;52.532;13.352;2022-07-17T02:38:49;13.70;99.90
41262;DHT22;29629;52.532;13.352;2022-07-17T02:41:16;13.60;99.90
41262;DHT22;29629;52.532;13.352;2022-07-17T02:43:43;13.70;99.90
41262;DHT22;29629;52.532;13.352;2022-07-17T02:46:11;13.70;99.90
41262;DHT22;29629;52.532;13.352;2022-07-17T02:48:39;13.60;99.90
41262;DHT22;29629;52.532;13.352;2022-07-17T02:51:05;13.60;99.90
41262;DHT22;29629;52.532;13.352;2022-07-17T02:53:32;13.60;99.90
41262;DHT22;29629;52.532;13.352;2022-07-17T02:55:59;13.60;99.90
41262;DHT22;29629;52.532;13.352;2022-07-17T02:58:26;13.70;99.90
41262;DHT22;29629;52.532;13.352;2022-07-17T03:00:53;13.60;99.90
41262;DHT22;29629;52.532;13.352;2022-07-17T03:03:21;13.50;99.90
41262;DHT22;29629;52.532;13.352;2022-07-17T03:05:48;13.50;99.90
41262;DHT22;29629;52.532;13.352;2022-07-17T03:08:15;13.50;99.90
41262;DHT22;29629;52.532;13.352;2022-07-17T03:10:42;13.60;99.90
41262;DHT22;29629;52.532;13.352;2022-07-17T03:13:08;13.40;99.90
41262;DHT22;29629;52.532;13.352;2022-07-17T03:15:35;13.40;99.90
41262;DHT22;29629;52.532;13.352;2022-07-17T03:18:02;13.40;99.90
41262;DHT22;29629;52.532;13.352;2022-07-17T03:20:30;13.40;99.90
41262;DHT22;29629;52.532;13.352;2022-07-17T03:22:57;13.40;99.90
41262;DHT22;29629;52.532;13.352;2022-07-17T03:25:24;13.40;99.90
41262;DHT22;29629;52.532;13.352;2022-07-17T03:27:50;13.40;99.90
41262;DHT22;29629;52.532;13.352;2022-07-17T03:30:17;13.40;99.90
41262;DHT22;29629;52.532;13.352;2022-07-17T03:32:44;13.40;99.90
41262;DHT22;29629;52.532;13.352;2022-07-17T03:35:11;13.30;99.90
41262;DHT22;29629;52.532;13.352;2022-07-17T03:37:39;13.40;99.90
41262;DHT22;29629;52.532;13.352;2022-07-17T03:40:07;13.40;99.90
41262;DHT22;29629;52.532;13.352;2022-07-17T03:42:34;13.40;99.90
41262;DHT22;29629;52.532;13.352;2022-07-17T03:45:01;13.40;99.90
41262;DHT22;29629;52.532;13.352;2022-07-17T03:47:27;13.40;99.90
41262;DHT22;29629;52.532;13.352;2022-07-17T03:49:54;13.30;99.90
41262;DHT22;29629;52.532;13.352;2022-07-17T03:52:22;13.30;99.90
41262;DHT22;29629;52.532;13.352;2022-07-17T03:54:50;13.50;99.90
41262;DHT22;29629;52.532;13.352;2022-07-17T03:57:17;13.40;99.90
41262;DHT22;29629;52.532;13.352;2022-07-17T03:59:44;13.40;99.90
41262;DHT22;29629;52.532;13.352;2022-07-17T04:02:11;13.50;99.90
41262;DHT22;29629;52.532;13.352;2022-07-17T04:04:37;13.50;99.90
41262;DHT22;29629;52.532;13.352;2022-07-17T04:07:04;13.60;99.90
41262;DHT22;29629;52.532;13.352;2022-07-17T04:09:31;13.70;99.90
41262;DHT22;29629;52.532;13.352;2022-07-17T04:11:59;13.80;99.90
41262;DHT22;29629;52.532;13.352;2022-07-17T04:14:26;13.80;99.90
41262;DHT22;29629;52.532;13.352;2022-07-17T04:16:53;13.80;99.90
41262;DHT22;29629;52.532;13.352;2022-07-17T04:19:19;13.90;99.90
41262;DHT22;29629;52.532;13.352;2022-07-17T04:21:46;14.00;99.90
41262;DHT22;29629;52.532;13.352;2022-07-17T04:24:13;14.10;99.90
41262;DHT22;29629;52.532;13.352;2022-07-17T04:26:40;14.20;99.90
41262;DHT22;29629;52.532;13.352;2022-07-17T04:29:08;14.30;99.90
41262;DHT22;29629;52.532;13.352;2022-07-17T04:31:35;14.40;99.90
41262;DHT22;29629;52.532;13.352;2022-07-17T04:34:02;14.40;99.90
41262;DHT22;29629;52.532;13.352;2022-07-17T04:36:29;14.50;99.90
41262;DHT22;29629;52.532;13.352;2022-07-17T04:38:56;14.60;99.90
41262;DHT22;29629;52.532;13.352;2022-07-17T04:41:22;14.60;99.90
41262;DHT22;29629;52.532;13.352;2022-07-17T04:43:49;14.80;99.90
41262;DHT22;29629;52.532;13.352;2022-07-17T04:46:17;14.80;99.90
41262;DHT22;29629;52.532;13.352;2022-07-17T04:48:44;14.90;99.90
41262;DHT22;29629;52.532;13.352;2022-07-17T04:51:11;15.00;99.90
41262;DHT22;29629;52.532;13.352;2022-07-17T04:53:38;15.00;99.90
41262;DHT22;29629;52.532;13.352;2022-07-17T04:56:05;15.00;99.90
41262;DHT22;29629;52.532;13.352;2022-07-17T04:58:31;15.10;99.90
41262;DHT22;29629;52.532;13.352;2022-07-17T05:00:58;15.20;99.90
41262;DHT22;29629;52.532;13.352;2022-07-17T05:03:26;15.30;99.90
41262;DHT22;29629;52.532;13.352;2022-07-17T05:05:53;15.30;99.90
41262;DHT22;29629;52.532;13.352;2022-07-17T05:08:20;15.30;99.90
41262;DHT22;29629;52.532;13.352;2022-07-17T05:10:47;15.40;99.90
41262;DHT22;29629;52.532;13.352;2022-07-17T05:13:14;15.40;99.90
41262;DHT22;29629;52.532;13.352;2022-07-17T05:15:40;15.40;99.90
41262;DHT22;29629;52.532;13.352;2022-07-17T05:18:07;15.40;99.90
41262;DHT22;29629;52.532;13.352;2022-07-17T05:20:36;15.60;99.90
41262;DHT22;29629;52.532;13.352;2022-07-17T05:23:03;15.60;99.90
41262;DHT22;29629;52.532;13.352;2022-07-17T05:25:29;15.60;99.90
41262;DHT22;29629;52.532;13.352;2022-07-17T05:27:56;15.60;99.90
41262;DHT22;29629;52.532;13.352;2022-07-17T05:30:23;15.70;99.90
41262;DHT22;29629;52.532;13.352;2022-07-17T05:32:50;15.80;99.90
41262;DHT22;29629;52.532;13.352;2022-07-17T05:35:17;15.80;99.90
41262;DHT22;29629;52.532;13.352;2022-07-17T05:37:45;15.90;99.90
41262;DHT22;29629;52.532;13.352;2022-07-17T05:40:12;16.00;99.90
41262;DHT22;29629;52.532;13.352;2022-07-17T05:42:39;16.10;99.90
41262;DHT22;29629;52.532;13.352;2022-07-17T05:45:07;16.20;99.90
41262;DHT22;29629;52.532;13.352;2022-07-17T05:47:34;16.20;99.90
41262;DHT22;29629;52.532;13.352;2022-07-17T05:50:01;16.30;99.90
41262;DHT22;29629;52.532;13.352;2022-07-17T05:52:27;16.40;99.90
41262;DHT22;29629;52.532;13.352;2022-07-17T05:54:55;16.40;99.90
41262;DHT22;29629;52.532;13.352;2022-07-17T05:57:22;16.50;99.90
41262;DHT22;29629;52.532;13.352;2022-07-17T05:59:49;16.60;99.90
41262;DHT22;29629;52.532;13.352;2022-07-17T06:02:16;16.80;99.90
41262;DHT22;29629;52.532;13.352;2022-07-17T06:04:43;16.80;99.90
41262;DHT22;29629;52.532;13.352;2022-07-17T06:07:09;16.90;99.90
41262;DHT22;29629;52.532;13.352;2022-07-17T06:09:36;16.90;99.90
41262;DHT22;29629;52.532;13.352;2022-07-17T06:12:05;16.90;99.90
41262;DHT22;29629;52.532;13.352;2022-07-17T06:14:32;17.00;99.90
41262;DHT22;29629;52.532;13.352;2022-07-17T06:16:59;17.20;99.90
41262;DHT22;29629;52.532;13.352;2022-07-17T06:19:25;17.40;99.90
41262;DHT22;29629;52.532;13.352;2022-07-17T06:21:52;17.50;99.90
41262;DHT22;29629;52.532;13.352;2022-07-17T06:24:19;17.60;99.90
41262;DHT22;29629;52.532;13.352;2022-07-17T06:26:46;17.60;99.90
41262;DHT22;29629;52.532;13.352;2022-07-17T06:29:14;17.70;99.90
41262;DHT22;29629;52.532;13.352;2022-07-17T06:31:41;17.80;99.90
41262;DHT22;29629;52.532;13.352;2022-07-17T06:34:08;17.90;99.90
41262;DHT22;29629;52.532;13.352;2022-07-17T06:36:34;18.10;99.90
41262;DHT22;29629;52.532;13.352;2022-07-17T06:39:01;18.10;99.90
41262;DHT22;29629;52.532;13.352;2022-07-17T06:41:28;18.20;99.90
41262;DHT22;29629;52.532;13.352;2022-07-17T06:43:55;18.30;99.90
41262;DHT22;29629;52.532;13.352;2022-07-17T06:46:23;18.40;99.90
41262;DHT22;29629;52.532;13.352;2022-07-17T06:48:50;18.40;99.90
41262;DHT22;29629;52.532;13.352;2022-07-17T06:51:17;18.30;99.90
41262;DHT22;29629;52.532;13.352;2022-07-17T06:53:44;18.40;99.90
41262;DHT22;29629;52.532;13.352;2022-07-17T06:56:11;18.40;99.90
41262;DHT22;29629;52.532;13.352;2022-07-17T06:58:37;18.40;99.90
41262;DHT22;29629;52.532;13.352;2022-07-17T07:01:04;18.40;99.90
41262;DHT22;29629;52.532;13.352;2022-07-17T07:03:33;18.40;99.90
41262;DHT22;29629;52.532;13.352;2022-07-17T07:05:59;18.30;99.90
41262;DHT22;29629;52.532;13.352;2022-07-17T07:08:26;18.20;99.90
41262;DHT22;29629;52.532;13.352;2022-07-17T07:10:53;18.20;99.90
41262;DHT22;29629;52.532;13.352;2022-07-17T07:13:20;18.20;99.90
41262;DHT22;29629;52.532;13.352;2022-07-17T07:15:47;18.30;99.90
41262;DHT22;29629;52.532;13.352;2022-07-17T07:18:14;18.40;99.90
41262;DHT22;29629;52.532;13.352;2022-07-17T07:20:42;18.30;99.90
41262;DHT22;29629;52.532;13.352;2022-07-17T07:23:08;18.30;99.90
41262;DHT22;29629;52.532;13.352;2022-07-17T07:25:35;18.30;99.90
41262;DHT22;29629;52.532;13.352;2022-07-17T07:28:02;18.50;99.90
41262;DHT22;29629;52.532;13.352;2022-07-17T07:30:29;18.50;99.90
41262;DHT22;29629;52.532;13.352;2022-07-17T07:32:56;18.40;99.90
41262;DHT22;29629;52.532;13.352;2022-07-17T07:35:23;18.50;99.90
41262;DHT22;29629;52.532;13.352;2022-07-17T07:37:51;18.40;99.90
41262;DHT22;29629;52.532;13.352;2022-07-17T07:40:18;18.60;99.90
41262;DHT22;29629;52.532;13.352;2022-07-17T07:42:45;18.80;99.90
41262;DHT22;29629;52.532;13.352;2022-07-17T07:45:12;18.80;99.90
41262;DHT22;29629;52.532;13.352;2022-07-17T07:47:43;18.90;99.90
41262;DHT22;29629;52.532;13.352;2022-07-17T07:50:10;18.80;99.90
41262;DHT22;29629;52.532;13.352;2022-07-17T07:52:38;18.60;99.90
41262;DHT22;29629;52.532;13.352;2022-07-17T07:55:07;18.60;99.90
41262;DHT22;29629;52.532;13.352;2022-07-17T07:57:35;18.50;99.90
41262;DHT22;29629;52.532;13.352;2022-07-17T08:00:03;18.40;99.90
41262;DHT22;29629;52.532;13.352;2022-07-17T08:02:30;18.40;99.90
41262;DHT22;29629;52.532;13.352;2022-07-17T08:04:56;18.30;99.90
41262;DHT22;29629;52.532;13.352;2022-07-17T08:07:25;18.50;99.90
41262;DHT22;29629;52.532;13.352;2022-07-17T08:09:52;18.50;99.90
41262;DHT22;29629;52.532;13.352;2022-07-17T08:12:21;18.50;99.90
41262;DHT22;29629;52.532;13.352;2022-07-17T08:14:48;18.50;99.90
41262;DHT22;29629;52.532;13.352;2022-07-17T08:17:15;18.60;99.90
41262;DHT22;29629;52.532;13.352;2022-07-17T08:19:42;18.70;99.90
41262;DHT22;29629;52.532;13.352;2022-07-17T08:22:08;18.80;99.90
41262;DHT22;29629;52.532;13.352;2022-07-17T08:24:35;18.80;99.90
41262;DHT22;29629;52.532;13.352;2022-07-17T08:27:02;18.90;99.90
41262;DHT22;29629;52.532;13.352;2022-07-17T08:29:30;19.10;99.90
41262;DHT22;29629;52.532;13.352;2022-07-17T08:31:57;19.20;99.90
41262;DHT22;29629;52.532;13.352;2022-07-17T08:34:24;19.30;99.90
41262;DHT22;29629;52.532;13.352;2022-07-17T08:36:51;19.40;99.90
41262;DHT22;29629;52.532;13.352;2022-07-17T08:39:18;19.50;99.90
41262;DHT22;29629;52.532;13.352;2022-07-17T08:41:44;19.60;99.90
41262;DHT22;29629;52.532;13.352;2022-07-17T08:44:12;20.10;99.90
41262;DHT22;29629;52.532;13.352;2022-07-17T08:46:40;20.60;99.90
41262;DHT22;29629;52.532;13.352;2022-07-17T08:49:08;20.90;99.90
41262;DHT22;29629;52.532;13.352;2022-07-17T08:51:35;20.90;99.90
41262;DHT22;29629;52.532;13.352;2022-07-17T08:54:02;20.90;99.90
41262;DHT22;29629;52.532;13.352;2022-07-17T08:56:29;20.90;99.90
41262;DHT22;29629;52.532;13.352;2022-07-17T08:58:56;20.70;99.90
41262;DHT22;29629;52.532;13.352;2022-07-17T09:01:23;21.10;99.90
41262;DHT22;29629;52.532;13.352;2022-07-17T09:03:55;21.00;99.90
41262;DHT22;29629;52.532;13.352;2022-07-17T09:06:24;21.10;99.90
41262;DHT22;29629;52.532;13.352;2022-07-17T09:09:01;21.20;99.90
41262;DHT22;29629;52.532;13.352;2022-07-17T09:11:28;21.10;99.90
41262;DHT22;29629;52.532;13.352;2022-07-17T09:13:55;21.20;99.90
41262;DHT22;29629;52.532;13.352;2022-07-17T09:16:22;21.20;99.90
41262;DHT22;29629;52.532;13.352;2022-07-17T09:18:50;21.40;99.90
41262;DHT22;29629;52.532;13.352;2022-07-17T09:21:21;21.90;99.90
41262;DHT22;29629;52.532;13.352;2022-07-17T09:23:57;22.10;99.90
41262;DHT22;29629;52.532;13.352;2022-07-17T09:26:25;22.30;99.90
41262;DHT22;29629;52.532;13.352;2022-07-17T09:28:52;22.50;99.90
41262;DHT22;29629;52.532;13.352;2022-07-17T09:31:24;22.80;99.90
41262;DHT22;29629;52.532;13.352;2022-07-17T09:33:52;23.00;99.90
41262;DHT22;29629;52.532;13.352;2022-07-17T09:36:20;22.90;99.90
41262;DHT22;29629;52.532;13.352;2022-07-17T09:38:49;22.80;99.90
41262;DHT22;29629;52.532;13.352;2022-07-17T09:41:19;21.90;99.90
41262;DHT22;29629;52.532;13.352;2022-07-17T09:43:47;21.70;99.90
41262;DHT22;29629;52.532;13.352;2022-07-17T09:46:18;21.80;99.90
41262;DHT22;29629;52.532;13.352;2022-07-17T09:48:47;21.50;99.90
41262;DHT22;29629;52.532;13.352;2022-07-17T09:51:17;21.60;99.90
41262;DHT22;29629;52.532;13.352;2022-07-17T09:53:47;21.70;99.90
41262;DHT22;29629;52.532;13.352;2022-07-17T09:56:17;21.90;99.90
41262;DHT22;29629;52.532;13.352;2022-07-17T09:58:47;21.90;99.90
41262;DHT22;29629;52.532;13.352;2022-07-17T10:01:18;22.00;99.90
41262;DHT22;29629;52.532;13.352;2022-07-17T10:03:47;22.30;99.90
41262;DHT22;29629;52.532;13.352;2022-07-17T10:06:17;22.50;99.90
41262;DHT22;29629;52.532;13.352;2022-07-17T10:08:43;23.10;99.90
41262;DHT22;29629;52.532;13.352;2022-07-17T10:11:13;23.70;99.90
41262;DHT22;29629;52.532;13.352;2022-07-17T10:13:44;24.30;99.90
41262;DHT22;29629;52.532;13.352;2022-07-17T10:16:12;25.20;99.90
41262;DHT22;29629;52.532;13.352;2022-07-17T10:18:40;25.40;99.90
41262;DHT22;29629;52.532;13.352;2022-07-17T10:21:13;26.20;99.90
41262;DHT22;29629;52.532;13.352;2022-07-17T10:23:41;26.70;99.90
41262;DHT22;29629;52.532;13.352;2022-07-17T10:26:08;26.80;99.90
41262;DHT22;29629;52.532;13.352;2022-07-17T10:28:42;27.50;99.90
41262;DHT22;29629;52.532;13.352;2022-07-17T10:31:10;27.40;99.90
41262;DHT22;29629;52.532;13.352;2022-07-17T10:33:54;27.20;99.90
41262;DHT22;29629;52.532;13.352;2022-07-17T10:36:32;27.60;99.90
41262;DHT22;29629;52.532;13.352;2022-07-17T10:39:09;28.60;99.90
41262;DHT22;29629;52.532;13.352;2022-07-17T10:41:36;29.30;99.90
41262;DHT22;29629;52.532;13.352;2022-07-17T10:44:04;30.40;99.90
41262;DHT22;29629;52.532;13.352;2022-07-17T10:46:31;31.20;99.90
41262;DHT22;29629;52.532;13.352;2022-07-17T10:49:00;31.60;99.90
41262;DHT22;29629;52.532;13.352;2022-07-17T10:51:29;31.80;98.90
41262;DHT22;29629;52.532;13.352;2022-07-17T10:53:56;31.80;97.80
41262;DHT22;29629;52.532;13.352;2022-07-17T10:56:24;31.00;95.00
41262;DHT22;29629;52.532;13.352;2022-07-17T10:58:52;31.30;98.10
41262;DHT22;29629;52.532;13.352;2022-07-17T11:01:21;31.80;97.90
41262;DHT22;29629;52.532;13.352;2022-07-17T11:03:49;31.60;96.30
41262;DHT22;29629;52.532;13.352;2022-07-17T11:06:18;31.30;96.50
41262;DHT22;29629;52.532;13.352;2022-07-17T11:08:47;30.60;97.00
41262;DHT22;29629;52.532;13.352;2022-07-17T11:11:15;30.60;96.80
41262;DHT22;29629;52.532;13.352;2022-07-17T11:13:43;29.70;96.70
41262;DHT22;29629;52.532;13.352;2022-07-17T11:16:09;29.60;96.90
41262;DHT22;29629;52.532;13.352;2022-07-17T11:18:46;29.60;96.70
41262;DHT22;29629;52.532;13.352;2022-07-17T11:21:13;29.70;96.20
41262;DHT22;29629;52.532;13.352;2022-07-17T11:23:50;30.00;96.50
41262;DHT22;29629;52.532;13.352;2022-07-17T11:26:18;30.60;95.80
41262;DHT22;29629;52.532;13.352;2022-07-17T11:28:47;31.40;95.30
41262;DHT22;29629;52.532;13.352;2022-07-17T11:31:18;31.80;94.10
41262;DHT22;29629;52.532;13.352;2022-07-17T11:33:51;32.40;94.40
41262;DHT22;29629;52.532;13.352;2022-07-17T11:36:23;32.40;92.70
41262;DHT22;29629;52.532;13.352;2022-07-17T11:38:52;32.50;92.30
41262;DHT22;29629;52.532;13.352;2022-07-17T11:41:19;33.00;93.20
41262;DHT22;29629;52.532;13.352;2022-07-17T11:43:46;33.20;92.80
41262;DHT22;29629;52.532;13.352;2022-07-17T11:46:14;33.10;92.70
41262;DHT22;29629;52.532;13.352;2022-07-17T11:48:42;31.90;91.70
41262;DHT22;29629;52.532;13.352;2022-07-17T11:51:10;31.30;93.10
41262;DHT22;29629;52.532;13.352;2022-07-17T11:53:38;32.00;93.00
41262;DHT22;29629;52.532;13.352;2022-07-17T11:56:06;32.30;93.60
41262;DHT22;29629;52.532;13.352;2022-07-17T11:58:44;32.90;91.80
41262;DHT22;29629;52.532;13.352;2022-07-17T12:01:11;33.20;91.20
41262;DHT22;29629;52.532;13.352;2022-07-17T12:03:38;33.60;90.10
41262;DHT22;29629;52.532;13.352;2022-07-17T12:06:05;33.40;90.10
41262;DHT22;29629;52.532;13.352;2022-07-17T12:08:34;33.50;90.40
41262;DHT22;29629;52.532;13.352;2022-07-17T12:11:04;33.60;90.40
41262;DHT22;29629;52.532;13.352;2022-07-17T12:13:42;33.60;90.00
41262;DHT22;29629;52.532;13.352;2022-07-17T12:16:19;33.80;90.20
41262;DHT22;29629;52.532;13.352;2022-07-17T12:18:59;33.80;90.20
41262;DHT22;29629;52.532;13.352;2022-07-17T12:21:29;34.00;88.70
41262;DHT22;29629;52.532;13.352;2022-07-17T12:24:00;34.00;89.10
41262;DHT22;29629;52.532;13.352;2022-07-17T12:26:28;33.60;88.10
41262;DHT22;29629;52.532;13.352;2022-07-17T12:28:55;33.60;88.90
41262;DHT22;29629;52.532;13.352;2022-07-17T12:31:22;33.60;88.10
41262;DHT22;29629;52.532;13.352;2022-07-17T12:33:51;33.40;88.50
41262;DHT22;29629;52.532;13.352;2022-07-17T12:36:19;33.10;86.80
41262;DHT22;29629;52.532;13.352;2022-07-17T12:38:46;32.90;89.00
41262;DHT22;29629;52.532;13.352;2022-07-17T12:41:14;32.60;89.40
41262;DHT22;29629;52.532;13.352;2022-07-17T12:43:41;32.90;89.10
41262;DHT22;29629;52.532;13.352;2022-07-17T12:46:09;33.10;88.20
41262;DHT22;29629;52.532;13.352;2022-07-17T12:48:36;33.10;87.10
41262;DHT22;29629;52.532;13.352;2022-07-17T12:51:05;33.00;87.40
41262;DHT22;29629;52.532;13.352;2022-07-17T12:53:32;32.70;87.40
41262;DHT22;29629;52.532;13.352;2022-07-17T12:56:00;32.50;86.80
41262;DHT22;29629;52.532;13.352;2022-07-17T12:58:29;32.20;87.00
41262;DHT22;29629;52.532;13.352;2022-07-17T13:00:56;32.10;87.90
41262;DHT22;29629;52.532;13.352;2022-07-17T13:03:23;32.30;87.30
41262;DHT22;29629;52.532;13.352;2022-07-17T13:05:50;32.20;86.20
41262;DHT22;29629;52.532;13.352;2022-07-17T13:08:17;31.60;86.30
41262;DHT22;29629;52.532;13.352;2022-07-17T13:10:44;31.30;86.00
41262;DHT22;29629;52.532;13.352;2022-07-17T13:13:11;30.80;88.80
41262;DHT22;29629;52.532;13.352;2022-07-17T13:15:39;30.60;88.40
41262;DHT22;29629;52.532;13.352;2022-07-17T13:18:06;30.10;89.30
41262;DHT22;29629;52.532;13.352;2022-07-17T13:20:33;29.70;90.50
41262;DHT22;29629;52.532;13.352;2022-07-17T13:23:00;29.10;89.60
41262;DHT22;29629;52.532;13.352;2022-07-17T13:25:27;29.10;91.40
41262;DHT22;29629;52.532;13.352;2022-07-17T13:27:54;28.90;90.70
41262;DHT22;29629;52.532;13.352;2022-07-17T13:30:21;29.00;90.80
41262;DHT22;29629;52.532;13.352;2022-07-17T13:32:49;29.00;90.80
41262;DHT22;29629;52.532;13.352;2022-07-17T13:35:16;27.80;88.60
41262;DHT22;29629;52.532;13.352;2022-07-17T13:37:43;28.00;91.10
41262;DHT22;29629;52.532;13.352;2022-07-17T13:40:10;27.90;91.40
41262;DHT22;29629;52.532;13.352;2022-07-17T13:42:38;27.80;91.20
41262;DHT22;29629;52.532;13.352;2022-07-17T13:45:06;27.90;92.10
41262;DHT22;29629;52.532;13.352;2022-07-17T13:47:32;27.60;91.50
41262;DHT22;29629;52.532;13.352;2022-07-17T13:50:01;27.50;92.10
41262;DHT22;29629;52.532;13.352;2022-07-17T13:52:27;27.10;91.70
41262;DHT22;29629;52.532;13.352;2022-07-17T13:54:54;27.00;92.10
41262;DHT22;29629;52.532;13.352;2022-07-17T13:57:21;26.90;91.60
41262;DHT22;29629;52.532;13.352;2022-07-17T13:59:47;26.80;92.10
41262;DHT22;29629;52.532;13.352;2022-07-17T14:02:14;26.70;92.10
41262;DHT22;29629;52.532;13.352;2022-07-17T14:04:41;26.50;91.90
41262;DHT22;29629;52.532;13.352;2022-07-17T14:07:09;26.30;91.70
41262;DHT22;29629;52.532;13.352;2022-07-17T14:09:36;26.30;92.00
41262;DHT22;29629;52.532;13.352;2022-07-17T14:12:03;26.10;92.60
41262;DHT22;29629;52.532;13.352;2022-07-17T14:14:30;26.00;92.80
41262;DHT22;29629;52.532;13.352;2022-07-17T14:16:57;25.90;93.00
41262;DHT22;29629;52.532;13.352;2022-07-17T14:19:24;25.80;92.60
41262;DHT22;29629;52.532;13.352;2022-07-17T14:21:51;25.70;93.10
41262;DHT22;29629;52.532;13.352;2022-07-17T14:24:20;25.50;92.60
41262;DHT22;29629;52.532;13.352;2022-07-17T14:26:46;25.40;92.90
41262;DHT22;29629;52.532;13.352;2022-07-17T14:29:14;25.30;93.10
41262;DHT22;29629;52.532;13.352;2022-07-17T14:31:41;25.20;92.90
41262;DHT22;29629;52.532;13.352;2022-07-17T14:34:08;25.10;93.40
41262;DHT22;29629;52.532;13.352;2022-07-17T14:36:34;25.00;93.50
41262;DHT22;29629;52.532;13.352;2022-07-17T14:39:01;24.90;93.10
41262;DHT22;29629;52.532;13.352;2022-07-17T14:41:29;24.90;93.90
41262;DHT22;29629;52.532;13.352;2022-07-17T14:43:56;24.80;93.70
41262;DHT22;29629;52.532;13.352;2022-07-17T14:46:24;24.70;93.50
41262;DHT22;29629;52.532;13.352;2022-07-17T14:48:50;24.70;93.90
41262;DHT22;29629;52.532;13.352;2022-07-17T14:51:17;24.60;94.40
41262;DHT22;29629;52.532;13.352;2022-07-17T14:53:44;24.60;94.50
41262;DHT22;29629;52.532;13.352;2022-07-17T14:56:11;24.60;94.90
41262;DHT22;29629;52.532;13.352;2022-07-17T14:58:39;24.50;94.00
41262;DHT22;29629;52.532;13.352;2022-07-17T15:01:06;24.40;94.10
41262;DHT22;29629;52.532;13.352;2022-07-17T15:03:34;24.30;94.00
41262;DHT22;29629;52.532;13.352;2022-07-17T15:06:01;24.30;94.70
41262;DHT22;29629;52.532;13.352;2022-07-17T15:08:27;24.30;94.20
41262;DHT22;29629;52.532;13.352;2022-07-17T15:10:54;24.10;94.20
41262;DHT22;29629;52.532;13.352;2022-07-17T15:13:22;24.10;94.10
41262;DHT22;29629;52.532;13.352;2022-07-17T15:15:50;24.10;94.30
41262;DHT22;29629;52.532;13.352;2022-07-17T15:18:17;24.00;94.40